• Join FlightAware (Why Join?)
  • Login
  • US Flag 
09:59AM EST


 

Airport Tracker/Info


-or-


 

Live Flight TrackerFlight Track Log ✈ UPS35 ✈ 16-May-2014 ✈ YSSY / SYD - WSSS / SIN

Flight Track Log - Related Links

Times and Time Zones

All times are in EDT time to prevent confusion due to time zone crossing. See the UPS35 flight status page for this flight to view local times or setup timezone preferences in your user account.

Time Position Orientation Groundspeed Altitude Reporting Facility
EDT Latitude Longitude Course Direction KTS MPH feet Rate Location/Type
04:21AM -33.9253 151.1702 346° North 186 214 300  Level FlightAware ADS-B
04:22AM -33.9126 151.1664 344° North 183 211 1,000 2,400 Climbing FlightAware ADS-B (YRPA)
04:22AM -33.9090 151.1647 337° Northwest 183 211 1,100 1,800 Climbing FlightAware ADS-B
04:22AM -33.9043 151.1614 322° Northwest 187 215 1,300 1,800 Climbing FlightAware ADS-B (YRAY)
04:22AM -33.9028 151.1598 312° West 192 221 1,400 1,800 Climbing FlightAware ADS-B
04:22AM -33.8983 151.1531 302° West 192 221 1,600 1,800 Climbing FlightAware ADS-B (YRAY)
04:22AM -33.8917 151.1404 302° West 201 231 2,000 2,100 Climbing FlightAware ADS-B
04:23AM -33.8830 151.1245 303° West 207 238 2,700 2,400 Climbing FlightAware ADS-B (YRAY)
04:23AM -33.8783 151.1159 303° West 216 249 2,900 960 Climbing FlightAware ADS-B (YPLB)
04:23AM -33.8765 151.1127 304° West 226 260 3,100 1,080 Climbing FlightAware ADS-B
04:23AM -33.8645 151.0912 303° West 250 288 3,600 1,740 Climbing FlightAware ADS-B
04:24AM -33.8425 151.0500 302° West 277 319 4,300 2,160 Climbing FlightAware ADS-B (YSSY / SYD)
04:24AM -33.8362 151.0381 303° West 287 330 4,700 2,220 Climbing FlightAware ADS-B (YRAY)
04:24AM -33.8216 151.0099 297° West 294 338 5,400 2,160 Climbing FlightAware ADS-B (YRAY)
04:24AM -33.8149 150.9868 282° West 308 354 5,900 1,800 Climbing FlightAware ADS-B (YPLB)
04:25AM -33.8112 150.9637 280° West 323 372 6,300 1,440 Climbing FlightAware ADS-B
04:25AM -33.8067 150.9308 279° West 341 392 6,800 1,800 Climbing FlightAware ADS-B
04:25AM -33.8062 150.9271 279° West 336 387 7,200 1,860 Climbing FlightAware ADS-B (YPLB)
04:25AM -33.8005 150.8857 278° West 358 412 7,400 1,560 Climbing FlightAware ADS-B (YRAY)
04:25AM -33.7981 150.8675 278° West 366 421 7,700 1,860 Climbing FlightAware ADS-B (YRAY)
04:26AM -33.7953 150.8474 278° West 373 429 8,000 1,800 Climbing FlightAware ADS-B (YRAY)
04:26AM -33.7925 150.8262 278° West 380 437 8,300 1,860 Climbing FlightAware ADS-B (YRAY)
04:26AM -33.7869 150.7821 279° West 395 455 9,000 2,460 Climbing FlightAware ADS-B
04:26AM -33.7809 150.7397 281° West 397 457 10,000 2,700 Climbing FlightAware ADS-B
04:27AM -33.7678 150.6602 282° West 406 467 11,500 2,400 Climbing FlightAware ADS-B (YRAY)
04:28AM -33.7567 150.5929 280° West 414 476 12,600 2,100 Climbing FlightAware ADS-B (YRAY)
04:28AM -33.7465 150.5263 280° West 427 491 13,600 2,160 Climbing FlightAware ADS-B (YRPA)
04:28AM -33.7438 150.5089 280° West 429 494 14,000 2,460 Climbing FlightAware ADS-B (YPLB)
04:29AM -33.7278 150.4046 281° West 434 499 15,700 2,400 Climbing FlightAware ADS-B (YRAY)
04:29AM -33.7288 150.4106 280° West 435 501 16,000 2,220 Climbing FlightAware ADS-B (YPLB)
04:29AM -33.7240 150.3799 280° West 435 501 16,300 1,800 Climbing FlightAware ADS-B (YPLB)
04:30AM -33.7066 150.2851 285° West 445 512 17,300 1,740 Climbing FlightAware ADS-B (YRAY)
04:30AM -33.6990 150.2545 288° West 450 518 17,700 1,740 Climbing FlightAware ADS-B (YSSY / SYD)
04:31AM -33.6740 150.1637 287° West 457 526 18,800 1,620 Climbing FlightAware ADS-B (YRAY)
04:31AM -33.6623 150.1208 288° West 466 536 19,600 1,560 Climbing FlightAware ADS-B
04:32AM -33.6315 150.0084 288° West 475 547 20,500 1,560 Climbing FlightAware ADS-B (YSSY / SYD)
04:32AM -33.6057 149.9142 288° West 485 558 21,500 1,500 Climbing FlightAware ADS-B (YSSY / SYD)
04:33AM -33.5759 149.8060 288° West 491 565 22,500 1,560 Climbing FlightAware ADS-B (YSSY / SYD)
04:34AM -33.5481 149.7048 288° West 495 570 23,600 1,500 Climbing FlightAware ADS-B (YSSY / SYD)
04:34AM -33.5252 149.6216 288° West 500 575 24,300 1,980 Climbing FlightAware ADS-B (YRPA)
04:35AM -33.4910 149.4987 288° West 487 560 26,300 2,100 Climbing FlightAware ADS-B (YSSY / SYD)
04:36AM -33.4606 149.3900 288° West 485 558 27,500 1,800 Climbing FlightAware ADS-B (YSSY / SYD)
04:36AM -33.4352 149.2990 288° West 479 551 28,600 1,800 Climbing FlightAware ADS-B (YRPA)
04:37AM -33.4046 149.1902 289° West 472 543 29,900 1,020 Climbing FlightAware ADS-B (YSSY / SYD)
04:38AM -33.3786 149.0980 289° West 479 551 30,000 60 Climbing FlightAware ADS-B (YSSY / SYD)
04:38AM -33.3490 148.9936 289° West 478 550 30,000  Level FlightAware ADS-B (YSSY / SYD)
04:39AM -33.3309 148.9303 289° West 479 551 30,000  Level FlightAware ADS-B (YSSY / SYD)
04:40AM -33.3051 148.8395 289° West 482 555 30,000  Level FlightAware ADS-B (YSSY / SYD)
04:40AM -33.2585 148.6769 289° West 481 554 30,000  Level FlightAware ADS-B (YRPA)
04:41AM -33.2424 148.6210 289° West 477 549 30,000 120 Level FlightAware ADS-B (YRPA)
04:43AM -33.1363 148.2561 289° West 467 537 30,400 60 Climbing Aus ATC (RADAR)
04:44AM -33.1593 148.3336 289° West  Level FlightAware Approximate
04:45AM -32.9891 147.9755 302° West 475 547 30,400  Level Aus ATC (RADAR)
04:48AM -32.8250 147.6754 303° West 476 548 30,400  Level Aus ATC (RADAR)
04:49AM -32.6969 147.4423 303° West 475 547 30,400 -60 Level Aus ATC (RADAR)
04:51AM -32.5392 147.1568 303° West 471 542 30,300 -60 Descending Aus ATC (RADAR)
04:54AM -32.3829 146.8751 303° West 469 540 30,300  Level Aus ATC (RADAR)
04:55AM -32.2604 146.6574 304° West 476 548 30,400  Climbing Aus ATC (RADAR)
04:58AM -32.0866 146.3527 304° West 474 545 30,400 -60 Level Aus ATC (RADAR)
05:00AM -31.9305 146.0701 303° West 468 539 30,300 -60 Descending Aus ATC (RADAR)
05:01AM -31.8071 145.8608 305° West 468 539 30,300  Level Aus ATC (RADAR)
05:04AM -31.6111 145.5158 304° West 475 547 30,400  Climbing Aus ATC (RADAR)
05:05AM -31.5493 145.4091 304° West 474 545 30,400 -60 Level Aus ATC (RADAR)
05:07AM -31.4431 145.2353 304° West  Level FlightAware Approximate
05:14AM -30.9895 144.4684 304° West  Level FlightAware Approximate
05:15AM -30.9243 144.3594 305° West  Level FlightAware Approximate
05:16AM -30.8591 144.2506 305° West  Level FlightAware Approximate
05:17AM -30.7937 144.1420 305° West  Level FlightAware Approximate
05:18AM -30.7283 144.0334 305° West  Level FlightAware Approximate
05:19AM -30.6628 143.9251 305° West  Level FlightAware Approximate
05:20AM -30.5971 143.8168 305° West  Level FlightAware Approximate
05:21AM -30.5314 143.7088 305° West  Level FlightAware Approximate
05:22AM -30.4656 143.6008 305° West  Level FlightAware Approximate
05:23AM -30.3997 143.4930 305° West  Level FlightAware Approximate
05:24AM -30.3338 143.3854 305° West  Level FlightAware Approximate
05:25AM -30.2677 143.2779 305° West  Level FlightAware Approximate
05:26AM -30.2016 143.1705 305° West  Level FlightAware Approximate
05:27AM -30.1353 143.0634 306° West  Level FlightAware Approximate
05:28AM -30.0690 142.9563 306° West  Level FlightAware Approximate
05:29AM -30.0026 142.8494 306° West  Level FlightAware Approximate
05:30AM -29.9361 142.7426 306° West  Level FlightAware Approximate
05:31AM -29.8695 142.6360 306° West  Level FlightAware Approximate
05:32AM -29.8028 142.5295 306° West  Level FlightAware Approximate
05:33AM -29.7360 142.4232 306° West  Level FlightAware Approximate
05:34AM -29.6691 142.3170 306° West  Level FlightAware Approximate
05:35AM -29.6022 142.2110 306° West  Level FlightAware Approximate
05:36AM -29.5351 142.1051 306° West  Level FlightAware Approximate
05:37AM -29.4680 141.9993 306° West  Level FlightAware Approximate
05:38AM -29.4008 141.8937 306° West  Level FlightAware Approximate
05:39AM -29.3335 141.7882 306° West  Level FlightAware Approximate
05:40AM -29.2662 141.6829 306° West  Level FlightAware Approximate
05:41AM -29.1987 141.5777 306° West  Level FlightAware Approximate
05:42AM -29.1312 141.4726 306° West  Level FlightAware Approximate
05:43AM -29.0636 141.3677 306° West  Level FlightAware Approximate
05:44AM -28.9959 141.2629 306° West  Level FlightAware Approximate
05:45AM -28.9281 141.1582 306° West  Level FlightAware Approximate
05:46AM -28.8602 141.0537 307° West  Level FlightAware Approximate
05:47AM -28.7923 140.9494 307° West  Level FlightAware Approximate
05:48AM -28.7243 140.8451 307° West  Level FlightAware Approximate
05:49AM -28.6562 140.7410 307° West  Level FlightAware Approximate
05:50AM -28.5880 140.6370 307° West  Level FlightAware Approximate
05:51AM -28.5197 140.5332 307° West  Level FlightAware Approximate
05:52AM -28.4514 140.4295 307° West  Level FlightAware Approximate
05:53AM -28.3830 140.3259 307° West  Level FlightAware Approximate
05:54AM -28.3145 140.2225 307° West  Level FlightAware Approximate
05:55AM -28.2459 140.1192 307° West  Level FlightAware Approximate
05:56AM -28.1772 140.0160 307° West  Level FlightAware Approximate
05:57AM -28.1085 139.9130 307° West  Level FlightAware Approximate
05:58AM -28.0397 139.8101 307° West  Level FlightAware Approximate
05:59AM -27.9708 139.7073 307° West  Level FlightAware Approximate
06:00AM -27.9019 139.6047 307° West  Level FlightAware Approximate
06:01AM -27.8328 139.5022 307° West  Level FlightAware Approximate
06:02AM -27.7637 139.3998 307° West  Level FlightAware Approximate
06:03AM -27.6946 139.2975 307° West  Level FlightAware Approximate
06:04AM -27.6253 139.1954 307° West  Level FlightAware Approximate
06:05AM -27.5560 139.0934 307° West  Level FlightAware Approximate
06:06AM -27.4866 138.9916 308° West  Level FlightAware Approximate
06:07AM -27.4171 138.8898 308° West  Level FlightAware Approximate
06:08AM -27.3475 138.7882 308° West  Level FlightAware Approximate
06:09AM -27.2779 138.6867 308° West  Level FlightAware Approximate
06:10AM -27.2082 138.5854 308° West  Level FlightAware Approximate
06:11AM -27.1384 138.4842 308° West  Level FlightAware Approximate
06:12AM -27.0686 138.3831 308° West  Level FlightAware Approximate
06:13AM -26.9986 138.2821 308° West  Level FlightAware Approximate
06:14AM -26.9287 138.1812 308° West  Level FlightAware Approximate
06:15AM -26.8586 138.0805 308° West  Level FlightAware Approximate
06:16AM -26.7884 137.9800 308° West  Level FlightAware Approximate
06:17AM -26.7182 137.8795 308° West  Level FlightAware Approximate
06:18AM -26.6479 137.7792 308° West  Level FlightAware Approximate
06:19AM -26.5776 137.6789 308° West  Level FlightAware Approximate
06:20AM -26.5072 137.5789 308° West  Level FlightAware Approximate
06:21AM -26.4367 137.4789 308° West  Level FlightAware Approximate
06:22AM -26.3661 137.3790 308° West  Level FlightAware Approximate
06:23AM -26.2955 137.2793 308° West  Level FlightAware Approximate
06:24AM -26.2248 137.1797 308° West  Level FlightAware Approximate
06:25AM -26.1540 137.0802 308° West  Level FlightAware Approximate
06:26AM -26.0831 136.9809 308° West  Level FlightAware Approximate
06:27AM -26.0122 136.8816 308° West  Level FlightAware Approximate
06:28AM -25.9412 136.7825 309° West  Level FlightAware Approximate
06:29AM -25.8702 136.6835 309° West  Level FlightAware Approximate
06:30AM -25.7991 136.5847 309° West  Level FlightAware Approximate
06:31AM -25.7279 136.4859 309° West  Level FlightAware Approximate
06:32AM -25.6566 136.3873 309° West  Level FlightAware Approximate
06:33AM -25.5853 136.2888 309° West  Level FlightAware Approximate
06:34AM -25.5139 136.1904 309° West  Level FlightAware Approximate
06:35AM -25.4424 136.0921 309° West  Level FlightAware Approximate
06:36AM -25.3709 135.9940 309° West  Level FlightAware Approximate
06:37AM -25.2993 135.8959 309° West  Level FlightAware Approximate
06:38AM -25.2276 135.7980 309° West  Level FlightAware Approximate
06:39AM -25.1559 135.7002 309° West  Level FlightAware Approximate
06:40AM -25.0841 135.6025 309° West  Level FlightAware Approximate
06:41AM -25.0122 135.5049 309° West  Level FlightAware Approximate
06:42AM -24.9403 135.4074 309° West  Level FlightAware Approximate
06:43AM -24.8683 135.3101 309° West  Level FlightAware Approximate
06:43AM -23.9915 134.1392 309° West 453 521 30,000  Level FlightAware ADS-B (YBAS / ASP)
06:44AM -23.9514 134.0863 310° West 453 521 30,000  Level FlightAware ADS-B (YBAS / ASP)
06:44AM -23.8985 134.0167 310° West 452 520 30,000  Level FlightAware ADS-B (YBAS / ASP)
06:45AM -23.8608 133.9671 310° West 451 519 30,000  Level FlightAware ADS-B (YBAS / ASP)
06:45AM -23.8109 133.9017 310° West 452 520 30,000  Level FlightAware ADS-B (YBAS / ASP)
06:46AM -23.7704 133.8490 311° West 452 520 30,000  Level FlightAware ADS-B (YBAS / ASP)
06:47AM -23.7098 133.7747 312° West 450 518 30,000  Level FlightAware ADS-B (YBAS / ASP)
06:47AM -23.6644 133.7190 311° West 449 517 30,000  Level FlightAware ADS-B (YBAS / ASP)
06:48AM -23.6056 133.6464 311° West 449 517 30,000  Level FlightAware ADS-B (YBAS / ASP)
06:48AM -23.5664 133.5981 311° West 448 516 30,000  Level FlightAware ADS-B (YBAS / ASP)
06:49AM -23.5014 133.5182 312° West 447 514 30,000  Level FlightAware ADS-B (YBAS / ASP)
06:50AM -23.4599 133.4671 311° West 446 513 30,000  Level FlightAware ADS-B (YBAS / ASP)
06:50AM -23.3981 133.3913 312° West 446 513 30,000  Level FlightAware ADS-B (YBAS / ASP)
06:51AM -23.3562 133.3399 312° West 446 513 30,000  Level FlightAware ADS-B (YBAS / ASP)
06:52AM -23.2950 133.2650 312° West 446 513 30,000  Level FlightAware ADS-B (YBAS / ASP)
06:52AM -23.2545 133.2153 311° West 446 513 30,000 240 Level FlightAware ADS-B (YBAS / ASP)
06:53AM -23.1732 133.1159 312° West 448 516 30,400 900 Climbing FlightAware ADS-B (YBAS / ASP)
06:54AM -23.1146 133.0446 312° West 444 511 31,600 1,260 Climbing FlightAware ADS-B (YBAS / ASP)
06:54AM -23.0695 132.9895 311° West 443 510 32,000 300 Climbing FlightAware ADS-B (YBAS / ASP)
06:55AM -23.0106 132.9176 312° West 439 505 32,000  Level FlightAware ADS-B (YBAS / ASP)
06:56AM -22.9685 132.8666 312° West 440 506 32,000  Level FlightAware ADS-B (YBAS / ASP)
06:56AM -22.9094 132.7950 312° West 441 507 32,000  Level FlightAware ADS-B (YBAS / ASP)
06:57AM -22.8650 132.7412 312° West 441 507 32,000  Level FlightAware ADS-B (YBAS / ASP)
06:58AM -22.8048 132.6684 312° West 440 506 32,000  Level FlightAware ADS-B (YBAS / ASP)
06:58AM -22.7661 132.6216 312° West 440 506 32,000  Level FlightAware ADS-B (YBAS / ASP)
06:59AM -22.7023 132.5446 312° West 441 507 32,000  Level FlightAware ADS-B (YBAS / ASP)
06:59AM -22.6618 132.4957 312° West 441 507 32,000  Level FlightAware ADS-B (YBAS / ASP)
07:00AM -22.6230 132.4490 312° West 441 507 32,000  Level FlightAware ADS-B (YBAS / ASP)
07:00AM -22.5780 132.3947 312° West 442 509 32,000  Level FlightAware ADS-B (YBAS / ASP)
07:01AM -22.5168 132.3211 312° West 443 510 32,000  Level FlightAware ADS-B (YBAS / ASP)
07:02AM -22.4546 132.2466 312° West 443 510 32,000  Level FlightAware ADS-B (YBAS / ASP)
07:03AM -22.4022 132.1837 312° West 443 510 32,000  Level FlightAware ADS-B (YBAS / ASP)
07:05AM -22.2609 132.0147 312° West  Level FlightAware Approximate
07:06AM -22.1844 131.9235 312° West  Level FlightAware Approximate
07:07AM -22.1078 131.8324 312° West  Level FlightAware Approximate
07:08AM -22.0313 131.7413 312° West  Level FlightAware Approximate
07:09AM -21.9546 131.6504 312° West  Level FlightAware Approximate
07:10AM -21.8780 131.5596 312° West  Level FlightAware Approximate
07:11AM -21.7994 131.4667 312° West  Level FlightAware Approximate
07:12AM -21.7207 131.3739 312° West  Level FlightAware Approximate
07:13AM -21.6420 131.2812 312° West  Level FlightAware Approximate
07:14AM -21.5633 131.1886 312° West  Level FlightAware Approximate
07:15AM -21.4845 131.0961 312° West  Level FlightAware Approximate
07:16AM -21.4056 131.0037 313° West  Level FlightAware Approximate
07:17AM -21.3267 130.9114 313° West  Level FlightAware Approximate
07:18AM -21.2477 130.8192 313° West  Level FlightAware Approximate
07:19AM -21.1687 130.7272 313° West  Level FlightAware Approximate
07:20AM -21.0896 130.6352 313° West  Level FlightAware Approximate
07:21AM -21.0105 130.5433 313° West  Level FlightAware Approximate
07:22AM -20.9313 130.4515 313° West  Level FlightAware Approximate
07:23AM -20.8521 130.3598 313° West  Level FlightAware Approximate
07:24AM -20.7729 130.2682 313° West  Level FlightAware Approximate
07:25AM -20.6935 130.1767 313° West  Level FlightAware Approximate
07:26AM -20.6142 130.0853 313° West  Level FlightAware Approximate
07:27AM -20.5347 129.9940 313° West  Level FlightAware Approximate
07:28AM -20.4553 129.9028 313° West  Level FlightAware Approximate
07:29AM -20.3758 129.8116 313° West  Level FlightAware Approximate
07:30AM -20.2962 129.7206 313° West  Level FlightAware Approximate
07:31AM -20.2166 129.6297 313° West  Level FlightAware Approximate
07:32AM -20.1370 129.5388 313° West  Level FlightAware Approximate
07:33AM -20.0573 129.4481 313° West  Level FlightAware Approximate
07:34AM -19.9775 129.3574 313° West  Level FlightAware Approximate
07:35AM -19.8978 129.2669 313° West  Level FlightAware Approximate
07:36AM -19.8179 129.1764 313° West  Level FlightAware Approximate
07:37AM -19.7380 129.0860 313° West  Level FlightAware Approximate
07:38AM -19.6581 128.9957 313° West  Level FlightAware Approximate
07:39AM -19.5781 128.9055 313° West  Level FlightAware Approximate
07:40AM -19.4981 128.8154 313° West  Level FlightAware Approximate
07:41AM -19.4181 128.7254 313° West  Level FlightAware Approximate
07:42AM -19.3380 128.6355 313° West  Level FlightAware Approximate
07:43AM -19.2578 128.5456 313° West  Level FlightAware Approximate
07:44AM -19.1776 128.4559 313° West  Level FlightAware Approximate
07:45AM -19.0974 128.3662 313° West  Level FlightAware Approximate
07:46AM -19.0171 128.2766 313° West  Level FlightAware Approximate
07:47AM -18.9368 128.1871 313° West  Level FlightAware Approximate
07:48AM -18.8564 128.0977 314° West  Level FlightAware Approximate
07:49AM -18.7760 128.0083 314° West  Level FlightAware Approximate
07:50AM -18.6956 127.9191 314° West  Level FlightAware Approximate
07:51AM -18.6151 127.8300 314° West  Level FlightAware Approximate
07:52AM -18.5346 127.7409 314° West  Level FlightAware Approximate
07:53AM -18.4540 127.6519 314° West  Level FlightAware Approximate
07:54AM -18.3734 127.5630 314° West  Level FlightAware Approximate
07:55AM -18.2927 127.4742 314° West  Level FlightAware Approximate
07:56AM -18.2120 127.3854 314° West  Level FlightAware Approximate
07:57AM -18.1313 127.2968 314° West  Level FlightAware Approximate
07:58AM -18.0505 127.2082 314° West  Level FlightAware Approximate
07:59AM -17.9696 127.1198 314° West  Level FlightAware Approximate
08:00AM -17.8888 127.0314 314° West  Level FlightAware Approximate
08:01AM -17.8078 126.9430 314° West  Level FlightAware Approximate
08:02AM -17.7269 126.8548 314° West  Level FlightAware Approximate
08:03AM -17.6459 126.7666 314° West  Level FlightAware Approximate
08:04AM -17.5648 126.6786 314° West  Level FlightAware Approximate
08:05AM -17.4838 126.5906 314° West  Level FlightAware Approximate
08:06AM -17.4027 126.5026 314° West  Level FlightAware Approximate
08:07AM -17.3215 126.4148 314° West  Level FlightAware Approximate
08:08AM -17.2403 126.3270 314° West  Level FlightAware Approximate
08:09AM -17.1591 126.2394 314° West  Level FlightAware Approximate
08:10AM -17.0779 126.1517 314° West  Level FlightAware Approximate
08:11AM -16.9965 126.0642 314° West  Level FlightAware Approximate
08:12AM -16.9152 125.9768 314° West  Level FlightAware Approximate
08:13AM -16.8338 125.8894 314° West  Level FlightAware Approximate
08:14AM -16.7524 125.8021 314° West  Level FlightAware Approximate
08:15AM -16.6710 125.7148 314° West  Level FlightAware Approximate
08:16AM -16.5895 125.6277 314° West  Level FlightAware Approximate
08:17AM -16.5080 125.5406 314° West  Level FlightAware Approximate
08:18AM -16.4264 125.4536 314° West  Level FlightAware Approximate
08:18AM -16.1267 125.1346 315° West 441 507 32,000  Level FlightAware ADS-B (YBRM / BME)
08:27AM -15.2583 124.2192 315° West 446 513 32,000  Level FlightAware ADS-B (YBRM / BME)
08:28AM -15.3105 124.2740 315° West  Level FlightAware Approximate
08:28AM -15.2171 124.1762 315° West 447 514 32,000  Level FlightAware ADS-B (YBRM / BME)
08:31AM -14.9106 123.8559 315° West 456 525 32,100  Climbing FlightAware ADS-B (YBRM / BME)
08:32AM -14.9255 123.8716 315° West  Level FlightAware Approximate
08:32AM -14.8394 123.7815 315° West 457 526 32,000  Level FlightAware ADS-B (YBRM / BME)
08:33AM -14.7918 123.7318 315° West 458 527 32,000  Level FlightAware ADS-B (YBRM / BME)
08:33AM -14.7648 123.7037 315° West 459 528 32,000  Level FlightAware ADS-B (YBRM / BME)
08:34AM -14.7218 123.6592 315° West 458 527 32,000 -120 Level FlightAware ADS-B (YBRM / BME)
08:36AM -14.5709 123.5025 315° West  Level FlightAware Approximate
08:37AM -14.4886 123.4171 315° West  Level FlightAware Approximate
08:38AM -14.4061 123.3318 315° West  Level FlightAware Approximate
08:39AM -14.3237 123.2465 315° West  Level FlightAware Approximate
08:40AM -14.2413 123.1613 315° West  Level FlightAware Approximate
08:41AM -14.1588 123.0762 315° West  Level FlightAware Approximate
08:42AM -14.0763 122.9911 315° West  Level FlightAware Approximate
08:43AM -13.9937 122.9061 315° West  Level FlightAware Approximate
08:44AM -13.9112 122.8212 315° West  Level FlightAware Approximate
08:45AM -13.8286 122.7363 315° West  Level FlightAware Approximate
08:46AM -13.7459 122.6515 315° West  Level FlightAware Approximate
08:47AM -13.6633 122.5667 315° West  Level FlightAware Approximate
08:48AM -13.5806 122.4820 315° West  Level FlightAware Approximate
08:49AM -13.4979 122.3973 315° West  Level FlightAware Approximate
08:50AM -13.4151 122.3128 315° West  Level FlightAware Approximate
08:51AM -13.3324 122.2282 315° West  Level FlightAware Approximate
08:52AM -13.2495 122.1438 315° West  Level FlightAware Approximate
08:53AM -13.1667 122.0593 315° West  Level FlightAware Approximate
08:54AM -13.0839 121.9750 315° West  Level FlightAware Approximate
08:55AM -13.0010 121.8907 315° West  Level FlightAware Approximate
08:56AM -12.9181 121.8064 315° West  Level FlightAware Approximate
08:57AM -12.8351 121.7223 315° West  Level FlightAware Approximate
08:58AM -12.7522 121.6381 315° West  Level FlightAware Approximate
08:59AM -12.6692 121.5540 315° West  Level FlightAware Approximate
09:00AM -12.5862 121.4700 315° West  Level FlightAware Approximate
09:01AM -12.5031 121.3861 315° West  Level FlightAware Approximate
09:02AM -12.4200 121.3021 315° West  Level FlightAware Approximate
09:03AM -12.3370 121.2183 315° West  Level FlightAware Approximate
09:04AM -12.2538 121.1345 315° West  Level FlightAware Approximate
09:05AM -12.1707 121.0507 315° West  Level FlightAware Approximate
09:06AM -12.0875 120.9670 315° West  Level FlightAware Approximate
09:07AM -12.0043 120.8834 315° West  Level FlightAware Approximate
09:08AM -11.9462 120.7802 299° West  Level FlightAware Approximate
09:09AM -11.8895 120.6760 299° West  Level FlightAware Approximate
09:10AM -11.8327 120.5718 299° West  Level FlightAware Approximate
09:11AM -11.7759 120.4677 299° West  Level FlightAware Approximate
09:12AM -11.7191 120.3636 299° West  Level FlightAware Approximate
09:13AM -11.6622 120.2596 299° West  Level FlightAware Approximate
09:14AM -11.6052 120.1556 299° West  Level FlightAware Approximate
09:15AM -11.5483 120.0517 299° West  Level FlightAware Approximate
09:16AM -11.4913 119.9478 299° West  Level FlightAware Approximate
09:17AM -11.4342 119.8439 299° West  Level FlightAware Approximate
09:18AM -11.3772 119.7401 299° West  Level FlightAware Approximate
09:19AM -11.3200 119.6363 299° West  Level FlightAware Approximate
09:20AM -11.2629 119.5326 299° West  Level FlightAware Approximate
09:21AM -11.2057 119.4289 299° West  Level FlightAware Approximate
09:22AM -11.1485 119.3252 299° West  Level FlightAware Approximate
09:23AM -11.0912 119.2216 299° West  Level FlightAware Approximate
09:24AM -11.0339 119.1181 299° West  Level FlightAware Approximate
09:25AM -10.9766 119.0145 299° West  Level FlightAware Approximate
09:26AM -10.9193 118.9110 299° West  Level FlightAware Approximate
09:27AM -10.8619 118.8076 299° West  Level FlightAware Approximate
09:28AM -10.8044 118.7042 299° West  Level FlightAware Approximate
09:29AM -10.7470 118.6008 299° West  Level FlightAware Approximate
09:30AM -10.6895 118.4975 300° West  Level FlightAware Approximate
09:31AM -10.6319 118.3942 300° West  Level FlightAware Approximate
09:32AM -10.5744 118.2909 300° West  Level FlightAware Approximate
09:33AM -10.5168 118.1877 300° West  Level FlightAware Approximate
09:34AM -10.4591 118.0845 300° West  Level FlightAware Approximate
09:35AM -10.4015 117.9814 300° West  Level FlightAware Approximate
09:36AM -10.3438 117.8783 300° West  Level FlightAware Approximate
09:37AM -10.2860 117.7752 300° West  Level FlightAware Approximate
09:38AM -10.2283 117.6722 300° West  Level FlightAware Approximate
09:39AM -10.1705 117.5692 300° West  Level FlightAware Approximate
09:40AM -10.1127 117.4663 300° West  Level FlightAware Approximate
09:41AM -10.0548 117.3634 300° West  Level FlightAware Approximate
09:42AM -9.9953 117.2614 301° West  Level FlightAware Approximate
09:43AM -9.9353 117.1599 301° West  Level FlightAware Approximate
09:44AM -9.8751 117.0583 301° West  Level FlightAware Approximate
09:45AM -9.8150 116.9569 301° West  Level FlightAware Approximate
09:46AM -9.7548 116.8554 301° West  Level FlightAware Approximate
09:47AM -9.6948 116.7539 301° West  Level FlightAware Approximate
09:48AM -9.6349 116.6523 301° West  Level FlightAware Approximate
09:49AM -9.5749 116.5508 301° West  Level FlightAware Approximate
09:50AM -9.5149 116.4493 301° West  Level FlightAware Approximate
09:51AM -9.4549 116.3479 301° West  Level FlightAware Approximate
09:52AM -9.3949 116.2465 301° West  Level FlightAware Approximate
09:53AM -9.3348 116.1451 301° West  Level FlightAware Approximate
09:54AM -9.2747 116.0437 301° West  Level FlightAware Approximate
09:55AM -9.2146 115.9424 301° West  Level FlightAware Approximate
09:56AM -9.1544 115.8411 301° West  Level FlightAware Approximate
09:57AM -9.0942 115.7399 301° West  Level FlightAware Approximate
09:58AM -9.0340 115.6387 301° West  Level FlightAware Approximate
09:59AM -8.9738 115.5375 301° West  Level FlightAware Approximate
10:00AM -8.9135 115.4364 301° West  Level FlightAware Approximate
10:01AM -8.8532 115.3353 301° West  Level FlightAware Approximate
10:02AM -8.7929 115.2342 301° West  Level FlightAware Approximate
10:03AM -8.7224 115.1426 324° Northwest  Level FlightAware Approximate
10:04AM -8.6279 115.0734 324° Northwest  Level FlightAware Approximate
10:05AM -8.5333 115.0042 324° Northwest  Level FlightAware Approximate
10:06AM -8.4388 114.9351 324° Northwest  Level FlightAware Approximate
10:07AM -8.3443 114.8660 324° Northwest  Level FlightAware Approximate
10:08AM -8.2497 114.7969 324° Northwest  Level FlightAware Approximate
10:09AM -8.1551 114.7279 324° Northwest  Level FlightAware Approximate
10:10AM -8.0605 114.6589 324° Northwest  Level FlightAware Approximate
10:11AM -7.9659 114.5899 324° Northwest  Level FlightAware Approximate
10:12AM -7.8713 114.5209 324° Northwest  Level FlightAware Approximate
10:13AM -7.7767 114.4520 324° Northwest  Level FlightAware Approximate
10:14AM -7.6821 114.3831 324° Northwest  Level FlightAware Approximate
10:15AM -7.5875 114.3143 324° Northwest  Level FlightAware Approximate
10:16AM -7.4928 114.2454 324° Northwest  Level FlightAware Approximate
10:17AM -7.3981 114.1766 324° Northwest  Level FlightAware Approximate
10:18AM -7.3035 114.1079 324° Northwest  Level FlightAware Approximate
10:19AM -7.2088 114.0391 324° Northwest  Level FlightAware Approximate
10:20AM -7.1141 113.9704 324° Northwest  Level FlightAware Approximate
10:21AM -7.0194 113.9017 324° Northwest  Level FlightAware Approximate
10:22AM -6.9246 113.8332 324° Northwest  Level FlightAware Approximate
10:23AM -6.8299 113.7646 324° Northwest  Level FlightAware Approximate
10:24AM -6.7351 113.6961 324° Northwest  Level FlightAware Approximate
10:25AM -6.6403 113.6276 324° Northwest  Level FlightAware Approximate
10:26AM -6.5455 113.5591 324° Northwest  Level FlightAware Approximate
10:27AM -6.4507 113.4906 324° Northwest  Level FlightAware Approximate
10:28AM -6.3558 113.4222 324° Northwest  Level FlightAware Approximate
10:29AM -6.2610 113.3538 324° Northwest  Level FlightAware Approximate
10:30AM -6.1870 113.2637 308° West  Level FlightAware Approximate
10:31AM -6.1157 113.1709 308° West  Level FlightAware Approximate
10:32AM -6.0443 113.0780 308° West  Level FlightAware Approximate
10:33AM -5.9729 112.9852 308° West  Level FlightAware Approximate
10:34AM -5.9016 112.8924 308° West  Level FlightAware Approximate
10:35AM -5.8302 112.7996 308° West  Level FlightAware Approximate
10:36AM -5.7588 112.7069 308° West  Level FlightAware Approximate
10:37AM -5.6873 112.6142 308° West  Level FlightAware Approximate
10:38AM -5.6159 112.5215 308° West  Level FlightAware Approximate
10:39AM -5.5444 112.4288 308° West  Level FlightAware Approximate
10:40AM -5.4730 112.3361 308° West  Level FlightAware Approximate
10:41AM -5.4015 112.2435 308° West  Level FlightAware Approximate
10:42AM -5.3300 112.1509 308° West  Level FlightAware Approximate
10:43AM -5.2585 112.0583 308° West  Level FlightAware Approximate
10:44AM -5.1870 111.9657 308° West  Level FlightAware Approximate
10:45AM -5.1154 111.8732 308° West  Level FlightAware Approximate
10:46AM -5.0439 111.7806 308° West  Level FlightAware Approximate
10:47AM -4.9723 111.6881 308° West  Level FlightAware Approximate
10:48AM -4.9007 111.5956 308° West  Level FlightAware Approximate
10:49AM -4.8291 111.5032 308° West  Level FlightAware Approximate
10:50AM -4.7575 111.4107 308° West  Level FlightAware Approximate
10:51AM -4.6859 111.3183 308° West  Level FlightAware Approximate
10:52AM -4.6143 111.2259 308° West  Level FlightAware Approximate
10:53AM -4.5429 111.1332 308° West  Level FlightAware Approximate
10:54AM -4.4716 111.0406 308° West  Level FlightAware Approximate
10:55AM -4.4002 110.9481 308° West  Level FlightAware Approximate
10:56AM -4.3288 110.8555 308° West  Level FlightAware Approximate
10:57AM -4.2574 110.7629 308° West  Level FlightAware Approximate
10:58AM -4.1860 110.6704 308° West  Level FlightAware Approximate
10:59AM -4.1146 110.5779 308° West  Level FlightAware Approximate
11:00AM -4.0432 110.4854 308° West  Level FlightAware Approximate
11:01AM -3.9717 110.3929 308° West  Level FlightAware Approximate
11:02AM -3.8961 110.3039 311° West  Level FlightAware Approximate
11:03AM -3.8201 110.2152 311° West  Level FlightAware Approximate
11:04AM -3.7440 110.1265 311° West  Level FlightAware Approximate
11:05AM -3.6679 110.0379 311° West  Level FlightAware Approximate
11:06AM -3.5918 109.9493 311° West  Level FlightAware Approximate
11:07AM -3.5157 109.8607 311° West  Level FlightAware Approximate
11:08AM -3.4395 109.7721 311° West  Level FlightAware Approximate
11:09AM -3.3634 109.6835 311° West  Level FlightAware Approximate
11:10AM -3.2873 109.5949 311° West  Level FlightAware Approximate
11:11AM -3.2111 109.5064 311° West  Level FlightAware Approximate
11:12AM -3.1349 109.4178 311° West  Level FlightAware Approximate
11:13AM -3.0588 109.3293 311° West  Level FlightAware Approximate
11:14AM -2.9826 109.2408 311° West  Level FlightAware Approximate
11:15AM -2.9065 109.1523 311° West  Level FlightAware Approximate
11:16AM -2.8301 109.0639 311° West  Level FlightAware Approximate
11:17AM -2.7538 108.9756 311° West  Level FlightAware Approximate
11:18AM -2.6774 108.8873 311° West  Level FlightAware Approximate
11:19AM -2.6011 108.7989 311° West  Level FlightAware Approximate
11:20AM -2.5247 108.7106 311° West  Level FlightAware Approximate
11:21AM -2.4484 108.6223 311° West  Level FlightAware Approximate
11:22AM -2.3722 108.5339 311° West  Level FlightAware Approximate
11:23AM -2.2959 108.4455 311° West  Level FlightAware Approximate
11:24AM -2.2196 108.3571 311° West  Level FlightAware Approximate
11:25AM -2.1434 108.2688 311° West  Level FlightAware Approximate
11:26AM -2.0671 108.1804 311° West  Level FlightAware Approximate
11:27AM -1.9909 108.0920 311° West  Level FlightAware Approximate
11:28AM -1.9146 108.0036 311° West  Level FlightAware Approximate
11:29AM -1.8384 107.9152 311° West  Level FlightAware Approximate
11:30AM -1.7622 107.8268 311° West  Level FlightAware Approximate
11:31AM -1.6860 107.7385 311° West  Level FlightAware Approximate
11:32AM -1.6097 107.6501 311° West  Level FlightAware Approximate
11:33AM -1.5335 107.5617 311° West  Level FlightAware Approximate
11:34AM -1.4572 107.4734 311° West  Level FlightAware Approximate
11:35AM -1.3810 107.3850 311° West  Level FlightAware Approximate
11:36AM -1.3038 107.2975 312° West  Level FlightAware Approximate
11:37AM -1.2264 107.2102 312° West  Level FlightAware Approximate
11:38AM -1.1489 107.1229 312° West  Level FlightAware Approximate
11:39AM -1.0715 107.0356 312° West  Level FlightAware Approximate
11:40AM -0.9941 106.9483 312° West  Level FlightAware Approximate
11:41AM -0.9166 106.8610 312° West  Level FlightAware Approximate
11:42AM -0.8392 106.7737 312° West  Level FlightAware Approximate
11:42AM 1.2191 104.3872 322° Northwest 301 346 11,200  Level FlightAware ADS-B (WSAT / TGA)
11:43AM -0.7618 106.6864 312° West  Level FlightAware Approximate
11:43AM 1.3019 104.3279 325° Northwest 293 337 9,900  Level FlightAware ADS-B (WSAT / TGA)
11:43AM 1.3198 104.3158 328° Northwest 292 336 9,400 -1,800 Descending FlightAware ADS-B (WSAT / TGA)
11:44AM 1.3360 104.3056 328° Northwest 288 331 9,000 -1,680 Descending FlightAware ADS-B (WSAT / TGA)
11:44AM 1.3522 104.2950 326° Northwest 285 328 8,600 -1,620 Descending FlightAware ADS-B (WSAT / TGA)
11:46AM 1.3544 104.1005 271° West  Level Estimated
11:47AM 1.3557 103.9875 271° West  Level Estimated
11:48AM 1.3557 103.9875 North  Level Estimated
11:49AM 1.3557 103.9875 North  Level Estimated
11:50AM 1.3557 103.9875 North  Level Estimated
11:51AM 1.3557 103.9875 North  Level Estimated
11:52AM 1.3557 103.9875 North  Level Estimated
11:53AM 1.3557 103.9875 North  Level Estimated
11:54AM 1.3557 103.9875 North  Level Estimated
11:55AM 1.3557 103.9875 North  Level Estimated
11:56AM 1.3557 103.9875 North  Level Estimated
11:57AM 1.3557 103.9875 North  Level Estimated
11:58AM 1.3557 103.9875 North  Level Estimated
11:59AM 1.3557 103.9875 North  Level Estimated
12:00PM 1.3557 103.9875 North  Level Estimated
12:01PM 1.3557 103.9875 North  Level Estimated
12:02PM 1.3557 103.9875 North  Level Estimated
12:03PM 1.3557 103.9875 North  Level Estimated
12:04PM 1.3557 103.9875 North  Level Estimated
12:05PM 1.3557 103.9875 North  Level Estimated
12:06PM 1.3557 103.9875 North  Level Estimated
12:07PM 1.3557 103.9875 North  Level Estimated
12:08PM 1.3557 103.9875 North  Level Estimated
12:09PM 1.3557 103.9875 North  Level Estimated
12:10PM 1.3557 103.9875 North  Level Estimated
12:11PM 1.3557 103.9875 North  Level Estimated